createdAt,value
2022-09-04T00:00:09.873Z,1015.32
2022-09-04T00:01:09.872Z,1015.32
2022-09-04T00:02:09.869Z,1015.28
2022-09-04T00:03:09.860Z,1015.29
2022-09-04T00:04:09.924Z,1015.27
2022-09-04T00:05:10.034Z,1015.30
2022-09-04T00:06:09.849Z,1015.32
2022-09-04T00:07:09.842Z,1015.31
2022-09-04T00:08:09.841Z,1015.34
2022-09-04T00:09:09.834Z,1015.33
2022-09-04T00:10:09.854Z,1015.33
2022-09-04T00:11:09.824Z,1015.27
2022-09-04T00:12:09.819Z,1015.28
2022-09-04T00:13:09.813Z,1015.28
2022-09-04T00:14:09.814Z,1015.30
2022-09-04T00:15:09.805Z,1015.29
2022-09-04T00:16:09.866Z,1015.33
2022-09-04T00:17:09.796Z,1015.28
2022-09-04T00:18:09.792Z,1015.29
2022-09-04T00:19:09.797Z,1015.27
2022-09-04T00:20:09.786Z,1015.21
2022-09-04T00:21:09.779Z,1015.27
2022-09-04T00:22:09.773Z,1015.24
2022-09-04T00:23:09.782Z,1015.26
2022-09-04T00:24:09.763Z,1015.27
2022-09-04T00:25:09.762Z,1015.27
2022-09-04T00:26:09.755Z,1015.37
2022-09-04T00:27:09.750Z,1015.36
2022-09-04T00:28:09.745Z,1015.38
2022-09-04T00:29:09.743Z,1015.47
2022-09-04T00:30:09.744Z,1015.47
2022-09-04T00:31:09.787Z,1015.38
2022-09-04T00:32:09.727Z,1015.45
2022-09-04T00:33:09.722Z,1015.38
2022-09-04T00:34:09.723Z,1015.43
2022-09-04T00:35:09.710Z,1015.39
2022-09-04T00:36:09.712Z,1015.42
2022-09-04T00:37:09.703Z,1015.39
2022-09-04T00:38:09.700Z,1015.42
2022-09-04T00:39:09.699Z,1015.37
2022-09-04T00:40:09.685Z,1015.39
2022-09-04T00:41:09.686Z,1015.37
2022-09-04T00:42:09.675Z,1015.36
2022-09-04T00:43:09.672Z,1015.40
2022-09-04T00:44:09.669Z,1015.39
2022-09-04T00:45:09.816Z,1015.38
2022-09-04T00:46:09.700Z,1015.45
2022-09-04T00:47:09.655Z,1015.40
2022-09-04T00:48:09.646Z,1015.43
2022-09-04T00:49:09.644Z,1015.50
2022-09-04T00:50:09.643Z,1015.45
2022-09-04T00:51:09.637Z,1015.48
2022-09-04T00:52:09.630Z,1015.55
2022-09-04T00:53:09.629Z,1015.50
2022-09-04T00:54:09.620Z,1015.49
2022-09-04T00:55:09.620Z,1015.58
2022-09-04T00:56:09.617Z,1015.53
2022-09-04T00:57:09.607Z,1015.52
2022-09-04T00:58:09.601Z,1015.57
2022-09-04T00:59:09.593Z,1015.56
2022-09-04T01:00:09.598Z,1015.57
2022-09-04T01:01:09.643Z,1015.60
2022-09-04T01:02:09.775Z,1015.58
2022-09-04T01:03:09.579Z,1015.55
2022-09-04T01:04:09.574Z,1015.59
2022-09-04T01:05:09.575Z,1015.57
2022-09-04T01:06:09.564Z,1015.56
2022-09-04T01:07:09.556Z,1015.63
2022-09-04T01:08:13.292Z,1015.60
2022-09-04T01:09:09.546Z,1015.61
2022-09-04T01:10:09.541Z,1015.62
2022-09-04T01:11:09.535Z,1015.62
2022-09-04T01:12:09.531Z,1015.61
2022-09-04T01:13:09.529Z,1015.62
2022-09-04T01:14:09.519Z,1015.63
2022-09-04T01:15:09.516Z,1015.68
2022-09-04T01:16:09.535Z,1015.62
2022-09-04T01:17:09.511Z,1015.62
2022-09-04T01:18:09.496Z,1015.62
2022-09-04T01:19:09.499Z,1015.68
2022-09-04T01:20:09.489Z,1015.69
2022-09-04T01:21:09.485Z,1015.66
2022-09-04T01:22:09.475Z,1015.66
2022-09-04T01:23:09.474Z,1015.66
2022-09-04T01:24:09.469Z,1015.68
2022-09-04T01:25:09.466Z,1015.68
2022-09-04T01:26:09.460Z,1015.64
2022-09-04T01:27:09.454Z,1015.75
2022-09-04T01:28:09.449Z,1015.69
2022-09-04T01:29:09.446Z,1015.68
2022-09-04T01:30:09.447Z,1015.68
2022-09-04T01:31:09.433Z,1015.67
2022-09-04T01:32:09.429Z,1015.65
2022-09-04T01:33:09.422Z,1015.67
2022-09-04T01:34:09.423Z,1015.65
2022-09-04T01:35:09.414Z,1015.65
2022-09-04T01:36:09.414Z,1015.67
2022-09-04T01:37:09.405Z,1015.65
2022-09-04T01:38:09.400Z,1015.64
2022-09-04T01:39:09.390Z,1015.69
2022-09-04T01:40:09.390Z,1015.66
2022-09-04T01:41:09.384Z,1015.68
2022-09-04T01:42:09.378Z,1015.69
2022-09-04T01:43:09.374Z,1015.67
2022-09-04T01:44:09.368Z,1015.70
2022-09-04T01:45:09.364Z,1015.74
2022-09-04T01:46:09.392Z,1015.72
2022-09-04T01:47:09.360Z,1015.70
2022-09-04T01:48:09.345Z,1015.69
2022-09-04T01:49:09.342Z,1015.68
2022-09-04T01:50:09.332Z,1015.71
2022-09-04T01:51:09.331Z,1015.74
2022-09-04T01:52:09.330Z,1015.67
2022-09-04T01:53:09.334Z,1015.68
2022-09-04T01:54:09.316Z,1015.68
2022-09-04T01:55:09.312Z,1015.65
2022-09-04T01:56:09.304Z,1015.65
2022-09-04T01:57:09.303Z,1015.66
2022-09-04T01:58:09.291Z,1015.61
2022-09-04T01:59:09.294Z,1015.69
2022-09-04T02:00:09.288Z,1015.67
2022-09-04T02:01:09.367Z,1015.66
2022-09-04T02:02:09.352Z,1015.64
2022-09-04T02:03:09.264Z,1015.66
2022-09-04T02:04:09.269Z,1015.66
2022-09-04T02:05:09.265Z,1015.66
2022-09-04T02:06:09.253Z,1015.70
2022-09-04T02:07:09.259Z,1015.69
2022-09-04T02:08:09.239Z,1015.67
2022-09-04T02:09:09.235Z,1015.65
2022-09-04T02:10:09.311Z,1015.65
2022-09-04T02:11:09.225Z,1015.66
2022-09-04T02:12:09.214Z,1015.65
2022-09-04T02:13:09.214Z,1015.66
2022-09-04T02:14:09.207Z,1015.63
2022-09-04T02:15:09.210Z,1015.69
2022-09-04T02:16:09.238Z,1015.67
2022-09-04T02:17:09.193Z,1015.66
2022-09-04T02:18:09.187Z,1015.65
2022-09-04T02:19:09.183Z,1015.67
2022-09-04T02:20:09.193Z,1015.66
2022-09-04T02:21:09.170Z,1015.66
2022-09-04T02:22:09.165Z,1015.67
2022-09-04T02:23:09.157Z,1015.66
2022-09-04T02:24:09.159Z,1015.69
2022-09-04T02:25:09.147Z,1015.69
2022-09-04T02:26:09.150Z,1015.71
2022-09-04T02:27:09.138Z,1015.68
2022-09-04T02:28:09.136Z,1015.74
2022-09-04T02:29:09.124Z,1015.71
2022-09-04T02:30:09.121Z,1015.78
2022-09-04T02:31:09.149Z,1015.72
2022-09-04T02:32:09.566Z,1015.69
2022-09-04T02:33:09.105Z,1015.71
2022-09-04T02:34:09.117Z,1015.74
2022-09-04T02:35:09.096Z,1015.76
2022-09-04T02:36:09.091Z,1015.75
2022-09-04T02:37:09.082Z,1015.76
2022-09-04T02:38:09.080Z,1015.75
2022-09-04T02:39:09.072Z,1015.76
2022-09-04T02:40:09.075Z,1015.76
2022-09-04T02:41:09.064Z,1015.73
2022-09-04T02:42:09.061Z,1015.75
2022-09-04T02:43:09.052Z,1015.75
2022-09-04T02:44:09.046Z,1015.76
2022-09-04T02:45:09.036Z,1015.72
2022-09-04T02:46:09.034Z,1015.78
2022-09-04T02:47:09.123Z,1015.74
2022-09-04T02:48:09.026Z,1015.76
2022-09-04T02:49:09.015Z,1015.74
2022-09-04T02:50:09.012Z,1015.73
2022-09-04T02:51:09.007Z,1015.74
2022-09-04T02:52:08.998Z,1015.74
2022-09-04T02:53:08.995Z,1015.75
2022-09-04T02:54:08.987Z,1015.72
2022-09-04T02:55:08.984Z,1015.73
2022-09-04T02:56:08.989Z,1015.75
2022-09-04T02:57:08.976Z,1015.73
2022-09-04T02:58:16.143Z,1015.70
2022-09-04T03:00:01.881Z,1015.68
2022-09-04T03:01:01.929Z,1015.68
2022-09-04T03:03:06.364Z,1015.67
2022-09-04T03:04:06.354Z,1015.72
2022-09-04T03:05:06.344Z,1015.66
2022-09-04T03:06:06.344Z,1015.67
2022-09-04T03:07:06.336Z,1015.62
2022-09-04T03:08:06.332Z,1015.65
2022-09-04T03:09:06.336Z,1015.61
2022-09-04T03:10:06.319Z,1015.63
2022-09-04T03:11:06.312Z,1015.62
2022-09-04T03:12:06.309Z,1015.64
2022-09-04T03:13:06.309Z,1015.65
2022-09-04T03:14:06.295Z,1015.63
2022-09-04T03:15:06.300Z,1015.60
2022-09-04T03:16:06.337Z,1015.63
2022-09-04T03:17:06.281Z,1015.66
2022-09-04T03:18:06.275Z,1015.67
2022-09-04T03:19:08.455Z,1015.67
2022-09-04T03:20:06.297Z,1015.72
2022-09-04T03:21:06.261Z,1015.73
2022-09-04T03:22:06.251Z,1015.74
2022-09-04T03:23:06.244Z,1015.73
2022-09-04T03:24:06.243Z,1015.71
2022-09-04T03:25:06.234Z,1015.74
2022-09-04T03:26:06.226Z,1015.74
2022-09-04T03:27:06.225Z,1015.77
2022-09-04T03:28:06.222Z,1015.82
2022-09-04T03:29:06.209Z,1015.81
2022-09-04T03:30:06.202Z,1015.85
2022-09-04T03:31:06.244Z,1015.82
2022-09-04T03:32:15.603Z,1015.81
2022-09-04T03:33:06.189Z,1015.83
2022-09-04T03:34:06.183Z,1015.83
2022-09-04T03:35:06.175Z,1015.85
2022-09-04T03:36:06.172Z,1015.90
2022-09-04T03:37:06.162Z,1015.88
2022-09-04T03:38:06.157Z,1015.88
2022-09-04T03:39:06.148Z,1015.88
2022-09-04T03:40:06.146Z,1015.85
2022-09-04T03:41:06.139Z,1015.89
2022-09-04T03:42:06.132Z,1015.89
2022-09-04T03:43:06.127Z,1015.88
2022-09-04T03:44:06.123Z,1015.87
2022-09-04T03:45:06.116Z,1015.87
2022-09-04T03:46:06.136Z,1015.92
2022-09-04T03:47:06.105Z,1015.89
2022-09-04T03:48:06.100Z,1015.87
2022-09-04T03:49:06.092Z,1015.90
2022-09-04T03:50:06.088Z,1015.88
2022-09-04T03:51:06.081Z,1015.88
2022-09-04T03:52:06.074Z,1015.88
2022-09-04T03:53:06.069Z,1015.88
2022-09-04T03:54:06.062Z,1015.88
2022-09-04T03:55:06.055Z,1015.90
2022-09-04T03:56:06.052Z,1015.87
2022-09-04T03:57:06.046Z,1015.93
2022-09-04T03:58:06.045Z,1015.93
2022-09-04T03:59:06.035Z,1015.91
2022-09-04T04:00:06.029Z,1015.89
2022-09-04T04:01:06.077Z,1015.92
2022-09-04T04:02:06.018Z,1015.94
2022-09-04T04:03:06.046Z,1015.91
2022-09-04T04:04:06.007Z,1015.96
2022-09-04T04:05:06.002Z,1015.95
2022-09-04T04:06:05.992Z,1015.96
2022-09-04T04:07:05.988Z,1015.98
2022-09-04T04:08:05.982Z,1015.95
2022-09-04T04:09:06.035Z,1015.98
2022-09-04T04:10:05.966Z,1015.95
2022-09-04T04:11:05.962Z,1015.95
2022-09-04T04:12:05.957Z,1015.98
2022-09-04T04:13:05.948Z,1015.95
2022-09-04T04:14:05.943Z,1015.97
2022-09-04T04:15:05.939Z,1015.99
2022-09-04T04:16:06.018Z,1015.97
2022-09-04T04:17:05.926Z,1015.97
2022-09-04T04:18:05.922Z,1015.98
2022-09-04T04:19:05.917Z,1015.99
2022-09-04T04:20:05.909Z,1015.95
2022-09-04T04:21:05.901Z,1015.99
2022-09-04T04:22:05.895Z,1015.95
2022-09-04T04:23:05.939Z,1016.01
2022-09-04T04:24:05.887Z,1015.98
2022-09-04T04:25:05.876Z,1015.98
2022-09-04T04:26:05.870Z,1016.05
2022-09-04T04:27:05.865Z,1016.02
2022-09-04T04:28:05.862Z,1016.03
2022-09-04T04:29:05.849Z,1016.05
2022-09-04T04:30:05.847Z,1016.03
2022-09-04T04:31:05.883Z,1016.06
2022-09-04T04:32:05.842Z,1016.04
2022-09-04T04:33:05.827Z,1016.09
2022-09-04T04:34:05.823Z,1016.07
2022-09-04T04:35:05.816Z,1016.08
2022-09-04T04:36:05.813Z,1016.13
2022-09-04T04:37:05.803Z,1016.14
2022-09-04T04:38:05.804Z,1016.16
2022-09-04T04:39:05.790Z,1016.16
2022-09-04T04:40:05.928Z,1016.19
2022-09-04T04:41:05.788Z,1016.13
2022-09-04T04:42:05.899Z,1016.14
2022-09-04T04:43:05.766Z,1016.14
2022-09-04T04:44:05.760Z,1016.16
2022-09-04T04:45:05.754Z,1016.14
2022-09-04T04:46:05.798Z,1016.13
2022-09-04T04:47:05.742Z,1016.15
2022-09-04T04:48:05.738Z,1016.11
2022-09-04T04:49:05.735Z,1016.16
2022-09-04T04:50:05.722Z,1016.13
2022-09-04T04:51:05.719Z,1016.17
2022-09-04T04:52:05.709Z,1016.13
2022-09-04T04:53:05.705Z,1016.20
2022-09-04T04:54:09.714Z,1016.23
2022-09-04T04:55:05.692Z,1016.22
2022-09-04T04:56:05.687Z,1016.24
2022-09-04T04:57:05.681Z,1016.22
2022-09-04T04:58:05.672Z,1016.30
2022-09-04T04:59:05.668Z,1016.27
2022-09-04T05:00:05.664Z,1016.30
2022-09-04T05:01:05.660Z,1016.31
2022-09-04T05:02:07.493Z,1016.32
2022-09-04T05:03:05.719Z,1016.34
2022-09-04T05:04:05.641Z,1016.41
2022-09-04T05:05:05.631Z,1016.44
2022-09-04T05:06:05.624Z,1016.46
2022-09-04T05:07:05.619Z,1016.50
2022-09-04T05:08:08.383Z,1016.58
2022-09-04T05:09:05.607Z,1016.60
2022-09-04T05:10:05.599Z,1016.62
2022-09-04T05:11:05.594Z,1016.61
2022-09-04T05:12:05.587Z,1016.67
2022-09-04T05:13:05.581Z,1016.62
2022-09-04T05:14:05.577Z,1016.66
2022-09-04T05:15:05.569Z,1016.67
2022-09-04T05:16:09.507Z,1016.68
2022-09-04T05:17:05.621Z,1016.70
2022-09-04T05:18:05.553Z,1016.72
2022-09-04T05:19:05.545Z,1016.72
2022-09-04T05:20:05.542Z,1016.72
2022-09-04T05:21:05.532Z,1016.77
2022-09-04T05:22:05.526Z,1016.77
2022-09-04T05:23:05.522Z,1016.76
2022-09-04T05:24:05.515Z,1016.77
2022-09-04T05:25:05.509Z,1016.83
2022-09-04T05:26:05.507Z,1016.86
2022-09-04T05:27:05.498Z,1016.83
2022-09-04T05:28:05.491Z,1016.87
2022-09-04T05:29:05.484Z,1016.86
2022-09-04T05:30:05.480Z,1016.88
2022-09-04T05:31:05.533Z,1016.86
2022-09-04T05:32:05.472Z,1016.91
2022-09-04T05:33:05.460Z,1016.94
2022-09-04T05:34:05.456Z,1016.93
2022-09-04T05:35:05.454Z,1016.90
2022-09-04T05:36:05.448Z,1016.95
2022-09-04T05:37:05.671Z,1016.94
2022-09-04T05:38:05.436Z,1016.97
2022-09-04T05:39:05.436Z,1016.96
2022-09-04T05:40:05.463Z,1016.99
2022-09-04T05:41:05.418Z,1017.02
2022-09-04T05:42:06.714Z,1017.04
2022-09-04T05:43:05.411Z,1017.07
2022-09-04T05:44:05.403Z,1017.06
2022-09-04T05:45:05.399Z,1017.10
2022-09-04T05:46:05.497Z,1017.11
2022-09-04T05:47:05.390Z,1017.16
2022-09-04T05:48:05.391Z,1017.17
2022-09-04T05:49:05.378Z,1017.18
2022-09-04T05:50:05.380Z,1017.15
2022-09-04T05:51:05.372Z,1017.15
2022-09-04T05:52:05.372Z,1017.20
2022-09-04T05:53:05.363Z,1017.16
2022-09-04T05:54:05.356Z,1017.20
2022-09-04T05:55:05.356Z,1017.21
2022-09-04T05:56:05.353Z,1017.22
2022-09-04T05:57:05.345Z,1017.28
2022-09-04T05:58:05.342Z,1017.26
2022-09-04T05:59:05.336Z,1017.28
2022-09-04T06:00:05.333Z,1017.30
2022-09-04T06:01:05.327Z,1017.30
2022-09-04T06:02:05.383Z,1017.31
2022-09-04T06:03:05.378Z,1017.32
2022-09-04T06:04:05.348Z,1017.30
2022-09-04T06:05:05.312Z,1017.36
2022-09-04T06:06:05.309Z,1017.38
2022-09-04T06:07:05.305Z,1017.34
2022-09-04T06:08:05.301Z,1017.39
2022-09-04T06:09:05.299Z,1017.39
2022-09-04T06:10:05.293Z,1017.40
2022-09-04T06:11:05.288Z,1017.40
2022-09-04T06:12:05.288Z,1017.39
2022-09-04T06:13:05.280Z,1017.40
2022-09-04T06:14:05.278Z,1017.38
2022-09-04T06:15:05.273Z,1017.40
2022-09-04T06:16:05.338Z,1017.39
2022-09-04T06:17:05.263Z,1017.33
2022-09-04T06:18:05.263Z,1017.38
2022-09-04T06:19:05.261Z,1017.40
2022-09-04T06:20:05.259Z,1017.42
2022-09-04T06:21:05.253Z,1017.38
2022-09-04T06:22:05.250Z,1017.38
2022-09-04T06:23:05.246Z,1017.37
2022-09-04T06:24:05.246Z,1017.37
2022-09-04T06:25:05.239Z,1017.36
2022-09-04T06:26:05.238Z,1017.36
2022-09-04T06:27:05.233Z,1017.42
2022-09-04T06:28:05.234Z,1017.40
2022-09-04T06:29:05.957Z,1017.39
2022-09-04T06:30:05.226Z,1017.42
2022-09-04T06:31:05.304Z,1017.42
2022-09-04T06:32:05.219Z,1017.47
2022-09-04T06:33:05.218Z,1017.51
2022-09-04T06:34:05.215Z,1017.46
2022-09-04T06:35:05.211Z,1017.47
2022-09-04T06:36:05.209Z,1017.49
2022-09-04T06:37:05.206Z,1017.48
2022-09-04T06:38:05.205Z,1017.44
2022-09-04T06:39:05.213Z,1017.43
2022-09-04T06:40:05.269Z,1017.44
2022-09-04T06:41:05.193Z,1017.42
2022-09-04T06:42:05.197Z,1017.47
2022-09-04T06:43:05.192Z,1017.45
2022-09-04T06:44:05.421Z,1017.45
2022-09-04T06:45:05.186Z,1017.46
2022-09-04T06:46:05.230Z,1017.49
2022-09-04T06:47:05.183Z,1017.54
2022-09-04T06:48:05.181Z,1017.53
2022-09-04T06:49:05.179Z,1017.48
2022-09-04T06:50:05.177Z,1017.56
2022-09-04T06:51:05.173Z,1017.65
2022-09-04T06:52:05.175Z,1017.55
2022-09-04T06:53:05.171Z,1017.57
2022-09-04T06:54:05.169Z,1017.60
2022-09-04T06:55:05.164Z,1017.64
2022-09-04T06:56:05.163Z,1017.58
2022-09-04T06:57:05.161Z,1017.64
2022-09-04T06:58:05.161Z,1017.61
2022-09-04T06:59:05.155Z,1017.63
2022-09-04T07:00:05.156Z,1017.64
2022-09-04T07:01:05.150Z,1017.69
2022-09-04T07:02:05.232Z,1017.70
2022-09-04T07:03:05.147Z,1017.72
2022-09-04T07:04:05.143Z,1017.71
2022-09-04T07:05:05.143Z,1017.82
2022-09-04T07:06:05.147Z,1017.82
2022-09-04T07:07:05.137Z,1017.83
2022-09-04T07:08:05.136Z,1017.79
2022-09-04T07:09:05.146Z,1017.82
2022-09-04T07:10:09.762Z,1017.89
2022-09-04T07:11:05.131Z,1017.84
2022-09-04T07:12:05.128Z,1017.81
2022-09-04T07:13:05.127Z,1017.78
2022-09-04T07:14:05.135Z,1017.74
2022-09-04T07:15:05.126Z,1017.73
2022-09-04T07:16:05.186Z,1017.72
2022-09-04T07:17:05.131Z,1017.73
2022-09-04T07:18:05.123Z,1017.68
2022-09-04T07:19:05.122Z,1017.71
2022-09-04T07:20:05.121Z,1017.72
2022-09-04T07:21:05.121Z,1017.69
2022-09-04T07:22:05.121Z,1017.73
2022-09-04T07:23:05.120Z,1017.70
2022-09-04T07:24:05.120Z,1017.70
2022-09-04T07:25:05.116Z,1017.76
2022-09-04T07:26:05.121Z,1017.72
2022-09-04T07:27:05.118Z,1017.78
2022-09-04T07:28:05.119Z,1017.72
2022-09-04T07:29:05.117Z,1017.73
2022-09-04T07:30:05.119Z,1017.73
2022-09-04T07:31:05.192Z,1017.75
2022-09-04T07:32:05.111Z,1017.71
2022-09-04T07:33:05.107Z,1017.73
2022-09-04T07:34:05.107Z,1017.71
2022-09-04T07:35:05.106Z,1017.72
2022-09-04T07:36:05.100Z,1017.75
2022-09-04T07:37:05.100Z,1017.71
2022-09-04T07:38:05.099Z,1017.75
2022-09-04T07:39:05.098Z,1017.75
2022-09-04T07:40:08.186Z,1017.75
2022-09-04T07:41:05.095Z,1017.74
2022-09-04T07:42:05.089Z,1017.75
2022-09-04T07:43:05.085Z,1017.77
2022-09-04T07:44:05.085Z,1017.83
2022-09-04T07:45:05.082Z,1017.83
2022-09-04T07:46:05.102Z,1017.87
2022-09-04T07:47:05.075Z,1017.83
2022-09-04T07:48:05.071Z,1017.83
2022-09-04T07:49:05.070Z,1017.92
2022-09-04T07:50:05.070Z,1017.90
2022-09-04T07:51:05.151Z,1017.86
2022-09-04T07:52:05.061Z,1017.93
2022-09-04T07:53:09.445Z,1017.91
2022-09-04T07:54:05.057Z,1017.97
2022-09-04T07:55:05.048Z,1017.97
2022-09-04T07:56:05.050Z,1017.96
2022-09-04T07:57:05.060Z,1017.98
2022-09-04T07:58:05.038Z,1018.01
2022-09-04T07:59:05.037Z,1017.98
2022-09-04T08:00:05.037Z,1018.04
2022-09-04T08:01:05.084Z,1017.99
2022-09-04T08:02:05.072Z,1018.03
2022-09-04T08:03:05.025Z,1018.04
2022-09-04T08:04:05.022Z,1018.01
2022-09-04T08:05:05.148Z,1018.01
2022-09-04T08:06:05.013Z,1018.09
2022-09-04T08:07:09.487Z,1018.06
2022-09-04T08:08:05.008Z,1018.06
2022-09-04T08:09:05.003Z,1018.08
2022-09-04T08:10:05.003Z,1018.08
2022-09-04T08:11:04.998Z,1018.10
2022-09-04T08:12:05.001Z,1018.13
2022-09-04T08:13:04.987Z,1018.08
2022-09-04T08:14:04.987Z,1018.13
2022-09-04T08:15:04.983Z,1018.14
2022-09-04T08:16:05.027Z,1018.13
2022-09-04T08:17:04.977Z,1018.10
2022-09-04T08:18:04.974Z,1018.07
2022-09-04T08:19:04.972Z,1018.07
2022-09-04T08:20:04.965Z,1018.08
2022-09-04T08:21:04.969Z,1018.03
2022-09-04T08:22:04.960Z,1018.02
2022-09-04T08:23:04.954Z,1018.07
2022-09-04T08:24:04.953Z,1018.03
2022-09-04T08:25:04.948Z,1018.05
2022-09-04T08:26:04.944Z,1018.03
2022-09-04T08:27:04.941Z,1018.04
2022-09-04T08:28:04.939Z,1018.07
2022-09-04T08:29:04.933Z,1018.08
2022-09-04T08:30:04.932Z,1018.07
2022-09-04T08:31:05.020Z,1018.17
2022-09-04T08:32:04.938Z,1018.12
2022-09-04T08:33:04.918Z,1018.14
2022-09-04T08:34:04.916Z,1018.13
2022-09-04T08:35:04.917Z,1018.10
2022-09-04T08:36:04.911Z,1018.10
2022-09-04T08:37:04.912Z,1018.09
2022-09-04T08:38:04.906Z,1018.13
2022-09-04T08:39:07.314Z,1018.05
2022-09-04T08:40:04.939Z,1018.11
2022-09-04T08:41:04.894Z,1018.09
2022-09-04T08:42:04.894Z,1018.05
2022-09-04T08:43:04.887Z,1018.01
2022-09-04T08:44:04.889Z,1018.07
2022-09-04T08:45:04.884Z,1018.09
2022-09-04T08:46:04.920Z,1018.08
2022-09-04T08:47:04.879Z,1018.13
2022-09-04T08:48:04.875Z,1018.12
2022-09-04T08:49:04.875Z,1018.12
2022-09-04T08:50:04.870Z,1018.08
2022-09-04T08:51:04.864Z,1018.09
2022-09-04T08:52:04.863Z,1018.14
2022-09-04T08:53:04.855Z,1018.17
2022-09-04T08:54:04.858Z,1018.17
2022-09-04T08:55:04.860Z,1018.05
2022-09-04T08:56:04.851Z,1018.13
2022-09-04T08:57:04.846Z,1018.17
2022-09-04T08:58:04.843Z,1018.17
2022-09-04T08:59:12.045Z,1018.13
2022-09-04T09:01:09.370Z,1018.12
2022-09-04T09:02:08.842Z,1018.17
2022-09-04T09:04:01.747Z,1018.20
2022-09-04T09:05:01.736Z,1018.18
2022-09-04T09:07:05.725Z,1018.21
2022-09-04T09:08:05.722Z,1018.18
2022-09-04T09:09:58.620Z,1018.17
2022-09-04T09:10:58.608Z,1018.16
2022-09-04T09:13:02.592Z,1018.18
2022-09-04T09:14:02.580Z,1018.22
2022-09-04T09:16:06.555Z,1018.18
2022-09-04T09:17:06.633Z,1018.16
2022-09-04T09:19:10.538Z,1018.14
2022-09-04T09:20:10.522Z,1018.15
2022-09-04T09:22:14.507Z,1018.14
2022-09-04T09:23:17.870Z,1018.07
2022-09-04T09:25:18.472Z,1018.08
2022-09-04T09:26:18.466Z,1018.11
2022-09-04T09:28:22.449Z,1018.09
2022-09-04T09:29:22.441Z,1018.08
2022-09-04T09:31:26.419Z,1018.09
2022-09-04T09:32:26.413Z,1018.10
2022-09-04T09:34:30.391Z,1018.12
2022-09-04T09:35:30.382Z,1018.15
2022-09-04T09:37:34.365Z,1018.08
2022-09-04T09:38:34.355Z,1018.15
2022-09-04T09:40:38.843Z,1018.11
2022-09-04T09:41:38.835Z,1018.14
2022-09-04T09:42:38.830Z,1018.09
2022-09-04T09:43:38.831Z,1018.08
2022-09-04T09:44:38.833Z,1018.06
2022-09-04T09:45:38.869Z,1018.09
2022-09-04T09:46:38.823Z,1018.07
2022-09-04T09:47:38.816Z,1018.09
2022-09-04T09:48:38.818Z,1018.08
2022-09-04T09:49:38.815Z,1018.11
2022-09-04T09:50:38.812Z,1018.13
2022-09-04T09:51:38.814Z,1018.12
2022-09-04T09:52:38.810Z,1018.09
2022-09-04T09:53:38.806Z,1018.13
2022-09-04T09:54:38.805Z,1018.07
2022-09-04T09:55:38.804Z,1018.16
2022-09-04T09:56:38.801Z,1018.17
2022-09-04T09:57:38.797Z,1018.06
2022-09-04T09:58:38.799Z,1018.13
2022-09-04T09:59:38.792Z,1018.13
2022-09-04T10:00:38.792Z,1018.10
2022-09-04T10:01:38.825Z,1018.05
2022-09-04T10:02:38.853Z,1018.05
2022-09-04T10:03:38.788Z,1018.10
2022-09-04T10:04:38.785Z,1018.07
2022-09-04T10:05:38.782Z,1018.09
2022-09-04T10:06:38.782Z,1018.05
2022-09-04T10:07:38.783Z,1018.07
2022-09-04T10:08:38.776Z,1018.10
2022-09-04T10:09:38.775Z,1018.14
2022-09-04T10:10:38.776Z,1018.16
2022-09-04T10:11:38.773Z,1018.19
2022-09-04T10:12:38.769Z,1018.06
2022-09-04T10:13:38.767Z,1018.09
2022-09-04T10:14:38.770Z,1018.06
2022-09-04T10:15:38.764Z,1018.09
2022-09-04T10:16:38.787Z,1018.03
2022-09-04T10:17:38.762Z,1017.99
2022-09-04T10:18:38.762Z,1018.11
2022-09-04T10:19:39.406Z,1018.09
2022-09-04T10:20:38.757Z,1018.17
2022-09-04T10:21:38.750Z,1018.15
2022-09-04T10:22:38.756Z,1018.20
2022-09-04T10:23:38.748Z,1018.21
2022-09-04T10:24:38.755Z,1018.18
2022-09-04T10:25:38.764Z,1018.18
2022-09-04T10:26:38.748Z,1018.20
2022-09-04T10:27:43.728Z,1018.18
2022-09-04T10:28:38.758Z,1018.19
2022-09-04T10:29:38.738Z,1018.16
2022-09-04T10:30:38.784Z,1018.14
2022-09-04T10:31:38.738Z,1018.13
2022-09-04T10:32:38.728Z,1018.18
2022-09-04T10:33:38.730Z,1018.17
2022-09-04T10:34:38.785Z,1018.14
2022-09-04T10:35:38.729Z,1018.12
2022-09-04T10:36:38.745Z,1018.13
2022-09-04T10:37:38.725Z,1018.15
2022-09-04T10:38:38.723Z,1018.16
2022-09-04T10:39:38.781Z,1018.20
2022-09-04T10:40:43.321Z,1018.20
2022-09-04T10:41:38.718Z,1018.19
2022-09-04T10:42:38.717Z,1018.27
2022-09-04T10:43:38.720Z,1018.22
2022-09-04T10:44:38.709Z,1018.16
2022-09-04T10:45:38.768Z,1018.26
2022-09-04T10:46:38.718Z,1018.22
2022-09-04T10:47:38.707Z,1018.26
2022-09-04T10:48:38.715Z,1018.31
2022-09-04T10:49:38.704Z,1018.25
2022-09-04T10:50:38.704Z,1018.22
2022-09-04T10:51:38.701Z,1018.20
2022-09-04T10:52:38.703Z,1018.28
2022-09-04T10:53:38.699Z,1018.22
2022-09-04T10:54:38.698Z,1018.24
2022-09-04T10:55:38.691Z,1018.23
2022-09-04T10:56:38.691Z,1018.20
2022-09-04T10:57:38.692Z,1018.21
2022-09-04T10:58:38.692Z,1018.21
2022-09-04T10:59:38.687Z,1018.22
2022-09-04T11:00:38.710Z,1018.15
2022-09-04T11:01:38.757Z,1018.16
2022-09-04T11:02:38.727Z,1018.18
2022-09-04T11:03:38.746Z,1018.14
2022-09-04T11:04:38.684Z,1018.12
2022-09-04T11:05:38.679Z,1018.19
2022-09-04T11:06:38.680Z,1018.19
2022-09-04T11:07:38.687Z,1018.16
2022-09-04T11:08:38.678Z,1018.17
2022-09-04T11:09:38.673Z,1018.21
2022-09-04T11:10:38.676Z,1018.24
2022-09-04T11:11:38.671Z,1018.22
2022-09-04T11:12:38.713Z,1018.21
2022-09-04T11:13:38.671Z,1018.21
2022-09-04T11:14:38.671Z,1018.16
2022-09-04T11:15:38.669Z,1018.16
2022-09-04T11:16:38.696Z,1018.12
2022-09-04T11:17:38.665Z,1018.13
2022-09-04T11:18:38.668Z,1018.13
2022-09-04T11:19:38.665Z,1018.16
2022-09-04T11:20:38.663Z,1018.17
2022-09-04T11:21:38.660Z,1018.17
2022-09-04T11:22:38.665Z,1018.13
2022-09-04T11:23:38.662Z,1018.09
2022-09-04T11:24:38.656Z,1018.17
2022-09-04T11:25:38.682Z,1018.17
2022-09-04T11:26:38.655Z,1018.13
2022-09-04T11:27:38.647Z,1018.16
2022-09-04T11:28:38.698Z,1018.17
2022-09-04T11:29:38.651Z,1018.09
2022-09-04T11:30:38.658Z,1018.14
2022-09-04T11:31:38.722Z,1018.09
2022-09-04T11:32:38.668Z,1018.10
2022-09-04T11:33:38.643Z,1018.15
2022-09-04T11:34:38.646Z,1018.10
2022-09-04T11:35:38.645Z,1018.11
2022-09-04T11:36:38.644Z,1018.06
2022-09-04T11:37:38.648Z,1018.05
2022-09-04T11:38:38.643Z,1018.02
2022-09-04T11:39:38.711Z,1018.04
2022-09-04T11:40:38.643Z,1018.00
2022-09-04T11:41:38.656Z,1017.99
2022-09-04T11:42:38.640Z,1018.01
2022-09-04T11:43:38.665Z,1018.03
2022-09-04T11:44:38.638Z,1018.02
2022-09-04T11:45:38.695Z,1018.01
2022-09-04T11:46:38.632Z,1018.01
2022-09-04T11:47:38.667Z,1018.00
2022-09-04T11:48:38.668Z,1017.99
2022-09-04T11:49:38.632Z,1018.01
2022-09-04T11:50:38.633Z,1017.95
2022-09-04T11:51:38.628Z,1017.98
2022-09-04T11:52:38.630Z,1017.96
2022-09-04T11:53:38.625Z,1017.92
2022-09-04T11:54:38.629Z,1017.97
2022-09-04T11:55:38.626Z,1017.90
2022-09-04T11:56:38.626Z,1017.87
2022-09-04T11:57:38.627Z,1017.86
2022-09-04T11:58:38.631Z,1017.87
2022-09-04T11:59:38.619Z,1017.88
2022-09-04T12:00:38.623Z,1017.92
2022-09-04T12:01:38.623Z,1017.87
2022-09-04T12:02:38.666Z,1017.89
2022-09-04T12:03:38.674Z,1017.93
2022-09-04T12:04:38.618Z,1017.89
2022-09-04T12:05:38.631Z,1017.92
2022-09-04T12:06:38.616Z,1017.88
2022-09-04T12:07:42.942Z,1017.89
2022-09-04T12:08:38.616Z,1017.76
2022-09-04T12:09:38.615Z,1017.76
2022-09-04T12:10:38.614Z,1017.83
2022-09-04T12:11:38.611Z,1017.88
2022-09-04T12:12:38.612Z,1017.87
2022-09-04T12:13:38.609Z,1017.85
2022-09-04T12:14:38.607Z,1017.87
2022-09-04T12:15:38.609Z,1017.89
2022-09-04T12:16:38.680Z,1017.86
2022-09-04T12:17:38.607Z,1017.84
2022-09-04T12:18:38.607Z,1017.85
2022-09-04T12:19:38.604Z,1017.78
2022-09-04T12:20:38.608Z,1017.88
2022-09-04T12:21:38.602Z,1017.78